sensor_id;sensor_type;location;lat;lon;timestamp;P1;durP1;ratioP1;P2;durP2;ratioP2
10226;SDS011;15634;48.766;2.272;2023-04-25T00:01:37;7.90;;;5.30;;
10226;SDS011;15634;48.766;2.272;2023-04-25T00:04:04;8.88;;;5.40;;
10226;SDS011;15634;48.766;2.272;2023-04-25T00:06:32;9.02;;;6.18;;
10226;SDS011;15634;48.766;2.272;2023-04-25T00:09:01;9.20;;;5.25;;
10226;SDS011;15634;48.766;2.272;2023-04-25T00:11:28;20.33;;;10.40;;
10226;SDS011;15634;48.766;2.272;2023-04-25T00:13:55;12.98;;;6.43;;
10226;SDS011;15634;48.766;2.272;2023-04-25T00:16:22;9.43;;;5.47;;
10226;SDS011;15634;48.766;2.272;2023-04-25T00:18:49;10.98;;;6.03;;
10226;SDS011;15634;48.766;2.272;2023-04-25T00:21:18;9.00;;;5.28;;
10226;SDS011;15634;48.766;2.272;2023-04-25T00:23:47;10.13;;;5.93;;
10226;SDS011;15634;48.766;2.272;2023-04-25T00:26:14;11.25;;;5.43;;
10226;SDS011;15634;48.766;2.272;2023-04-25T00:28:41;11.82;;;5.25;;
10226;SDS011;15634;48.766;2.272;2023-04-25T00:31:07;8.27;;;5.60;;
10226;SDS011;15634;48.766;2.272;2023-04-25T00:33:34;8.98;;;5.38;;
10226;SDS011;15634;48.766;2.272;2023-04-25T00:36:01;7.70;;;5.18;;
10226;SDS011;15634;48.766;2.272;2023-04-25T00:38:27;10.05;;;5.72;;
10226;SDS011;15634;48.766;2.272;2023-04-25T00:40:55;10.10;;;5.68;;
10226;SDS011;15634;48.766;2.272;2023-04-25T00:43:22;9.43;;;5.47;;
10226;SDS011;15634;48.766;2.272;2023-04-25T00:45:49;9.25;;;5.40;;
10226;SDS011;15634;48.766;2.272;2023-04-25T00:48:17;10.85;;;5.70;;
10226;SDS011;15634;48.766;2.272;2023-04-25T00:50:44;8.95;;;5.95;;
10226;SDS011;15634;48.766;2.272;2023-04-25T00:53:16;8.05;;;5.50;;
10226;SDS011;15634;48.766;2.272;2023-04-25T00:55:42;7.85;;;5.50;;
10226;SDS011;15634;48.766;2.272;2023-04-25T00:58:10;9.15;;;5.72;;
10226;SDS011;15634;48.766;2.272;2023-04-25T01:00:37;9.35;;;5.70;;
10226;SDS011;15634;48.766;2.272;2023-04-25T01:03:04;9.32;;;6.43;;
10226;SDS011;15634;48.766;2.272;2023-04-25T01:05:31;9.77;;;6.35;;
10226;SDS011;15634;48.766;2.272;2023-04-25T01:07:57;9.27;;;5.78;;
10226;SDS011;15634;48.766;2.272;2023-04-25T01:10:25;11.80;;;6.63;;
10226;SDS011;15634;48.766;2.272;2023-04-25T01:12:51;10.68;;;6.30;;
10226;SDS011;15634;48.766;2.272;2023-04-25T01:15:19;10.68;;;6.70;;
10226;SDS011;15634;48.766;2.272;2023-04-25T01:17:46;11.70;;;5.65;;
10226;SDS011;15634;48.766;2.272;2023-04-25T01:20:14;11.73;;;5.57;;
10226;SDS011;15634;48.766;2.272;2023-04-25T01:22:43;8.70;;;5.53;;
10226;SDS011;15634;48.766;2.272;2023-04-25T01:25:10;10.98;;;5.78;;
10226;SDS011;15634;48.766;2.272;2023-04-25T01:27:37;12.50;;;5.43;;
10226;SDS011;15634;48.766;2.272;2023-04-25T01:30:04;10.38;;;5.70;;
10226;SDS011;15634;48.766;2.272;2023-04-25T01:32:32;13.57;;;5.60;;
10226;SDS011;15634;48.766;2.272;2023-04-25T01:35:03;13.25;;;5.55;;
10226;SDS011;15634;48.766;2.272;2023-04-25T01:37:34;11.07;;;5.45;;
10226;SDS011;15634;48.766;2.272;2023-04-25T01:40:02;8.70;;;5.03;;
10226;SDS011;15634;48.766;2.272;2023-04-25T01:42:31;10.95;;;5.00;;
10226;SDS011;15634;48.766;2.272;2023-04-25T01:44:58;14.85;;;5.45;;
10226;SDS011;15634;48.766;2.272;2023-04-25T01:47:25;11.80;;;5.22;;
10226;SDS011;15634;48.766;2.272;2023-04-25T01:49:51;11.73;;;5.82;;
10226;SDS011;15634;48.766;2.272;2023-04-25T01:52:18;11.32;;;5.43;;
10226;SDS011;15634;48.766;2.272;2023-04-25T01:54:45;11.82;;;5.30;;
10226;SDS011;15634;48.766;2.272;2023-04-25T01:57:13;15.73;;;5.60;;
10226;SDS011;15634;48.766;2.272;2023-04-25T01:59:40;18.35;;;5.72;;
10226;SDS011;15634;48.766;2.272;2023-04-25T02:02:07;13.45;;;5.57;;
10226;SDS011;15634;48.766;2.272;2023-04-25T02:04:33;8.95;;;5.47;;
10226;SDS011;15634;48.766;2.272;2023-04-25T02:07:00;15.07;;;6.03;;
10226;SDS011;15634;48.766;2.272;2023-04-25T02:09:27;11.25;;;5.70;;
10226;SDS011;15634;48.766;2.272;2023-04-25T02:11:54;14.52;;;6.00;;
10226;SDS011;15634;48.766;2.272;2023-04-25T02:14:22;12.10;;;5.32;;
10226;SDS011;15634;48.766;2.272;2023-04-25T02:16:49;14.88;;;6.00;;
10226;SDS011;15634;48.766;2.272;2023-04-25T02:19:16;12.77;;;5.15;;
10226;SDS011;15634;48.766;2.272;2023-04-25T02:21:43;11.07;;;5.50;;
10226;SDS011;15634;48.766;2.272;2023-04-25T02:24:09;14.40;;;6.15;;
10226;SDS011;15634;48.766;2.272;2023-04-25T02:26:36;12.70;;;5.75;;
10226;SDS011;15634;48.766;2.272;2023-04-25T02:29:03;10.55;;;5.72;;
10226;SDS011;15634;48.766;2.272;2023-04-25T02:31:31;13.15;;;6.10;;
10226;SDS011;15634;48.766;2.272;2023-04-25T02:33:57;16.98;;;6.68;;
10226;SDS011;15634;48.766;2.272;2023-04-25T02:36:24;13.32;;;5.90;;
10226;SDS011;15634;48.766;2.272;2023-04-25T02:38:51;11.40;;;5.95;;
10226;SDS011;15634;48.766;2.272;2023-04-25T02:41:17;11.52;;;5.60;;
10226;SDS011;15634;48.766;2.272;2023-04-25T02:43:45;11.55;;;5.85;;
10226;SDS011;15634;48.766;2.272;2023-04-25T02:46:12;11.68;;;5.47;;
10226;SDS011;15634;48.766;2.272;2023-04-25T02:48:40;13.35;;;6.22;;
10226;SDS011;15634;48.766;2.272;2023-04-25T02:51:06;14.52;;;6.80;;
10226;SDS011;15634;48.766;2.272;2023-04-25T02:53:33;17.00;;;6.07;;
10226;SDS011;15634;48.766;2.272;2023-04-25T02:56:00;13.70;;;6.40;;
10226;SDS011;15634;48.766;2.272;2023-04-25T02:58:27;15.73;;;6.45;;
10226;SDS011;15634;48.766;2.272;2023-04-25T03:00:53;13.30;;;6.00;;
10226;SDS011;15634;48.766;2.272;2023-04-25T03:03:20;16.85;;;6.45;;
10226;SDS011;15634;48.766;2.272;2023-04-25T03:05:49;15.40;;;6.20;;
10226;SDS011;15634;48.766;2.272;2023-04-25T03:08:15;14.23;;;6.53;;
10226;SDS011;15634;48.766;2.272;2023-04-25T03:10:42;18.10;;;6.53;;
10226;SDS011;15634;48.766;2.272;2023-04-25T03:13:09;17.00;;;6.60;;
10226;SDS011;15634;48.766;2.272;2023-04-25T03:15:36;16.30;;;6.38;;
10226;SDS011;15634;48.766;2.272;2023-04-25T03:18:03;18.35;;;6.43;;
10226;SDS011;15634;48.766;2.272;2023-04-25T03:20:30;17.83;;;6.45;;
10226;SDS011;15634;48.766;2.272;2023-04-25T03:22:58;17.73;;;6.63;;
10226;SDS011;15634;48.766;2.272;2023-04-25T03:25:25;14.63;;;6.28;;
10226;SDS011;15634;48.766;2.272;2023-04-25T03:27:52;18.20;;;7.63;;
10226;SDS011;15634;48.766;2.272;2023-04-25T03:30:18;22.23;;;7.45;;
10226;SDS011;15634;48.766;2.272;2023-04-25T03:32:45;15.07;;;6.95;;
10226;SDS011;15634;48.766;2.272;2023-04-25T03:35:12;14.27;;;6.80;;
10226;SDS011;15634;48.766;2.272;2023-04-25T03:37:38;22.02;;;6.93;;
10226;SDS011;15634;48.766;2.272;2023-04-25T03:40:07;18.10;;;7.45;;
10226;SDS011;15634;48.766;2.272;2023-04-25T03:42:35;16.63;;;7.28;;
10226;SDS011;15634;48.766;2.272;2023-04-25T03:45:01;15.52;;;7.95;;
10226;SDS011;15634;48.766;2.272;2023-04-25T03:47:28;15.40;;;7.38;;
10226;SDS011;15634;48.766;2.272;2023-04-25T03:49:55;19.35;;;7.55;;
10226;SDS011;15634;48.766;2.272;2023-04-25T03:52:21;21.63;;;7.65;;
10226;SDS011;15634;48.766;2.272;2023-04-25T03:54:48;22.02;;;7.57;;
10226;SDS011;15634;48.766;2.272;2023-04-25T03:57:16;13.88;;;7.50;;
10226;SDS011;15634;48.766;2.272;2023-04-25T03:59:43;17.83;;;7.18;;
10226;SDS011;15634;48.766;2.272;2023-04-25T04:02:10;13.98;;;6.68;;
10226;SDS011;15634;48.766;2.272;2023-04-25T04:04:37;18.75;;;7.90;;
10226;SDS011;15634;48.766;2.272;2023-04-25T04:07:04;18.88;;;7.22;;
10226;SDS011;15634;48.766;2.272;2023-04-25T04:09:30;20.60;;;7.65;;
10226;SDS011;15634;48.766;2.272;2023-04-25T04:11:57;13.88;;;6.68;;
10226;SDS011;15634;48.766;2.272;2023-04-25T04:14:25;13.80;;;7.60;;
10226;SDS011;15634;48.766;2.272;2023-04-25T04:16:52;17.25;;;7.15;;
10226;SDS011;15634;48.766;2.272;2023-04-25T04:19:19;18.45;;;7.15;;
10226;SDS011;15634;48.766;2.272;2023-04-25T04:21:46;14.93;;;7.65;;
10226;SDS011;15634;48.766;2.272;2023-04-25T04:24:12;18.92;;;7.50;;
10226;SDS011;15634;48.766;2.272;2023-04-25T04:26:40;17.20;;;7.60;;
10226;SDS011;15634;48.766;2.272;2023-04-25T04:29:09;18.20;;;7.43;;
10226;SDS011;15634;48.766;2.272;2023-04-25T04:31:38;15.52;;;7.25;;
10226;SDS011;15634;48.766;2.272;2023-04-25T04:34:04;18.25;;;7.82;;
10226;SDS011;15634;48.766;2.272;2023-04-25T04:36:31;17.40;;;7.25;;
10226;SDS011;15634;48.766;2.272;2023-04-25T04:38:57;14.05;;;7.38;;
10226;SDS011;15634;48.766;2.272;2023-04-25T04:41:24;19.02;;;7.32;;
10226;SDS011;15634;48.766;2.272;2023-04-25T04:43:51;18.30;;;8.50;;
10226;SDS011;15634;48.766;2.272;2023-04-25T04:46:18;13.57;;;7.72;;
10226;SDS011;15634;48.766;2.272;2023-04-25T04:48:46;15.80;;;7.65;;
10226;SDS011;15634;48.766;2.272;2023-04-25T04:51:13;16.67;;;7.72;;
10226;SDS011;15634;48.766;2.272;2023-04-25T04:53:39;16.95;;;7.90;;
10226;SDS011;15634;48.766;2.272;2023-04-25T04:56:06;17.95;;;8.02;;
10226;SDS011;15634;48.766;2.272;2023-04-25T04:58:33;18.42;;;8.00;;
10226;SDS011;15634;48.766;2.272;2023-04-25T05:01:01;19.85;;;8.13;;
10226;SDS011;15634;48.766;2.272;2023-04-25T05:03:28;18.88;;;7.60;;
10226;SDS011;15634;48.766;2.272;2023-04-25T05:05:56;27.67;;;13.38;;
10226;SDS011;15634;48.766;2.272;2023-04-25T05:08:22;15.50;;;8.50;;
10226;SDS011;15634;48.766;2.272;2023-04-25T05:10:49;16.67;;;9.02;;
10226;SDS011;15634;48.766;2.272;2023-04-25T05:13:16;15.85;;;7.85;;
10226;SDS011;15634;48.766;2.272;2023-04-25T05:15:42;15.50;;;7.93;;
10226;SDS011;15634;48.766;2.272;2023-04-25T05:18:09;18.17;;;8.10;;
10226;SDS011;15634;48.766;2.272;2023-04-25T05:20:36;17.27;;;8.60;;
10226;SDS011;15634;48.766;2.272;2023-04-25T05:23:04;16.38;;;7.63;;
10226;SDS011;15634;48.766;2.272;2023-04-25T05:25:31;13.88;;;8.00;;
10226;SDS011;15634;48.766;2.272;2023-04-25T05:27:58;15.18;;;8.27;;
10226;SDS011;15634;48.766;2.272;2023-04-25T05:30:25;13.35;;;8.45;;
10226;SDS011;15634;48.766;2.272;2023-04-25T05:32:51;17.02;;;8.05;;
10226;SDS011;15634;48.766;2.272;2023-04-25T05:35:18;16.35;;;7.75;;
10226;SDS011;15634;48.766;2.272;2023-04-25T05:37:45;14.43;;;8.50;;
10226;SDS011;15634;48.766;2.272;2023-04-25T05:40:13;18.42;;;7.93;;
10226;SDS011;15634;48.766;2.272;2023-04-25T05:42:40;15.48;;;7.90;;
10226;SDS011;15634;48.766;2.272;2023-04-25T05:45:07;18.20;;;8.30;;
10226;SDS011;15634;48.766;2.272;2023-04-25T05:47:34;21.40;;;9.07;;
10226;SDS011;15634;48.766;2.272;2023-04-25T05:50:00;21.77;;;8.95;;
10226;SDS011;15634;48.766;2.272;2023-04-25T05:52:27;15.80;;;8.80;;
10226;SDS011;15634;48.766;2.272;2023-04-25T05:54:54;17.60;;;8.63;;
10226;SDS011;15634;48.766;2.272;2023-04-25T05:57:22;16.95;;;9.40;;
10226;SDS011;15634;48.766;2.272;2023-04-25T05:59:50;19.67;;;9.32;;
10226;SDS011;15634;48.766;2.272;2023-04-25T06:02:17;18.02;;;9.55;;
10226;SDS011;15634;48.766;2.272;2023-04-25T06:04:44;22.42;;;9.52;;
10226;SDS011;15634;48.766;2.272;2023-04-25T06:07:11;18.20;;;9.45;;
10226;SDS011;15634;48.766;2.272;2023-04-25T06:09:40;19.55;;;9.73;;
10226;SDS011;15634;48.766;2.272;2023-04-25T06:12:07;22.27;;;9.70;;
10226;SDS011;15634;48.766;2.272;2023-04-25T06:14:35;19.08;;;9.82;;
10226;SDS011;15634;48.766;2.272;2023-04-25T06:17:02;18.52;;;9.77;;
10226;SDS011;15634;48.766;2.272;2023-04-25T06:19:31;17.23;;;9.80;;
10226;SDS011;15634;48.766;2.272;2023-04-25T06:21:58;21.90;;;10.32;;
10226;SDS011;15634;48.766;2.272;2023-04-25T06:24:25;18.90;;;9.77;;
10226;SDS011;15634;48.766;2.272;2023-04-25T06:26:51;21.60;;;10.02;;
10226;SDS011;15634;48.766;2.272;2023-04-25T06:29:18;26.92;;;10.88;;
10226;SDS011;15634;48.766;2.272;2023-04-25T06:31:49;18.33;;;10.43;;
10226;SDS011;15634;48.766;2.272;2023-04-25T06:34:16;21.48;;;9.63;;
10226;SDS011;15634;48.766;2.272;2023-04-25T06:36:42;20.02;;;9.93;;
10226;SDS011;15634;48.766;2.272;2023-04-25T06:39:09;25.33;;;10.27;;
10226;SDS011;15634;48.766;2.272;2023-04-25T06:41:36;17.65;;;9.20;;
10226;SDS011;15634;48.766;2.272;2023-04-25T06:44:03;22.38;;;10.13;;
10226;SDS011;15634;48.766;2.272;2023-04-25T06:46:29;20.90;;;9.48;;
10226;SDS011;15634;48.766;2.272;2023-04-25T06:48:57;13.80;;;8.57;;
10226;SDS011;15634;48.766;2.272;2023-04-25T06:51:24;15.00;;;8.45;;
10226;SDS011;15634;48.766;2.272;2023-04-25T06:53:53;17.95;;;8.98;;
10226;SDS011;15634;48.766;2.272;2023-04-25T06:56:20;18.77;;;9.20;;
10226;SDS011;15634;48.766;2.272;2023-04-25T06:58:46;15.80;;;8.57;;
10226;SDS011;15634;48.766;2.272;2023-04-25T07:01:13;19.50;;;8.55;;
10226;SDS011;15634;48.766;2.272;2023-04-25T07:03:39;16.08;;;8.60;;
10226;SDS011;15634;48.766;2.272;2023-04-25T07:06:07;17.23;;;8.48;;
10226;SDS011;15634;48.766;2.272;2023-04-25T07:08:34;16.52;;;8.05;;
10226;SDS011;15634;48.766;2.272;2023-04-25T07:11:01;12.80;;;7.95;;
10226;SDS011;15634;48.766;2.272;2023-04-25T07:13:27;14.57;;;7.70;;
10226;SDS011;15634;48.766;2.272;2023-04-25T07:15:54;16.15;;;8.23;;
10226;SDS011;15634;48.766;2.272;2023-04-25T07:18:21;13.07;;;7.72;;
10226;SDS011;15634;48.766;2.272;2023-04-25T07:20:48;16.17;;;7.25;;
10226;SDS011;15634;48.766;2.272;2023-04-25T07:23:16;12.68;;;7.22;;
10226;SDS011;15634;48.766;2.272;2023-04-25T07:25:43;14.48;;;6.80;;
10226;SDS011;15634;48.766;2.272;2023-04-25T07:28:09;32.45;;;7.55;;
10226;SDS011;15634;48.766;2.272;2023-04-25T07:30:36;13.30;;;7.63;;
10226;SDS011;15634;48.766;2.272;2023-04-25T07:33:02;12.75;;;7.57;;
10226;SDS011;15634;48.766;2.272;2023-04-25T07:35:29;13.70;;;7.72;;
10226;SDS011;15634;48.766;2.272;2023-04-25T07:37:55;16.05;;;8.80;;
10226;SDS011;15634;48.766;2.272;2023-04-25T07:40:23;16.58;;;9.10;;
10226;SDS011;15634;48.766;2.272;2023-04-25T07:42:50;16.30;;;9.55;;
10226;SDS011;15634;48.766;2.272;2023-04-25T07:45:17;15.27;;;8.65;;
10226;SDS011;15634;48.766;2.272;2023-04-25T07:47:43;17.70;;;9.15;;
10226;SDS011;15634;48.766;2.272;2023-04-25T07:50:10;18.85;;;9.88;;
10226;SDS011;15634;48.766;2.272;2023-04-25T07:52:37;18.63;;;9.07;;
10226;SDS011;15634;48.766;2.272;2023-04-25T07:55:04;19.05;;;10.10;;
10226;SDS011;15634;48.766;2.272;2023-04-25T07:57:32;17.83;;;10.55;;
10226;SDS011;15634;48.766;2.272;2023-04-25T07:59:59;17.25;;;10.75;;
10226;SDS011;15634;48.766;2.272;2023-04-25T08:02:25;20.10;;;11.80;;
10226;SDS011;15634;48.766;2.272;2023-04-25T08:04:53;28.20;;;13.13;;
10226;SDS011;15634;48.766;2.272;2023-04-25T08:07:19;22.83;;;12.50;;
10226;SDS011;15634;48.766;2.272;2023-04-25T08:09:46;23.13;;;13.20;;
10226;SDS011;15634;48.766;2.272;2023-04-25T08:12:13;25.90;;;13.27;;
10226;SDS011;15634;48.766;2.272;2023-04-25T08:14:40;25.55;;;12.32;;
10226;SDS011;15634;48.766;2.272;2023-04-25T08:17:07;26.00;;;12.32;;
10226;SDS011;15634;48.766;2.272;2023-04-25T08:19:33;24.20;;;11.70;;
10226;SDS011;15634;48.766;2.272;2023-04-25T08:22:00;25.10;;;12.25;;
10226;SDS011;15634;48.766;2.272;2023-04-25T08:24:27;27.50;;;12.95;;
10226;SDS011;15634;48.766;2.272;2023-04-25T08:26:53;20.40;;;10.85;;
10226;SDS011;15634;48.766;2.272;2023-04-25T08:29:20;26.70;;;11.52;;
10226;SDS011;15634;48.766;2.272;2023-04-25T08:31:50;23.38;;;10.95;;
10226;SDS011;15634;48.766;2.272;2023-04-25T08:34:17;20.70;;;9.88;;
10226;SDS011;15634;48.766;2.272;2023-04-25T08:36:45;17.13;;;9.40;;
10226;SDS011;15634;48.766;2.272;2023-04-25T08:39:11;19.00;;;10.07;;
10226;SDS011;15634;48.766;2.272;2023-04-25T08:41:38;24.90;;;11.18;;
10226;SDS011;15634;48.766;2.272;2023-04-25T08:44:06;19.77;;;9.40;;
10226;SDS011;15634;48.766;2.272;2023-04-25T08:46:34;22.58;;;10.55;;
10226;SDS011;15634;48.766;2.272;2023-04-25T08:49:02;20.23;;;10.38;;
10226;SDS011;15634;48.766;2.272;2023-04-25T08:51:30;19.65;;;10.00;;
10226;SDS011;15634;48.766;2.272;2023-04-25T08:54:00;22.88;;;10.15;;
10226;SDS011;15634;48.766;2.272;2023-04-25T08:56:36;16.45;;;9.07;;
10226;SDS011;15634;48.766;2.272;2023-04-25T08:59:02;18.67;;;8.90;;
10226;SDS011;15634;48.766;2.272;2023-04-25T09:01:29;16.90;;;10.07;;
10226;SDS011;15634;48.766;2.272;2023-04-25T09:03:56;20.38;;;9.60;;
10226;SDS011;15634;48.766;2.272;2023-04-25T09:06:24;20.27;;;8.98;;
10226;SDS011;15634;48.766;2.272;2023-04-25T09:08:52;21.45;;;9.93;;
10226;SDS011;15634;48.766;2.272;2023-04-25T09:11:19;18.70;;;9.13;;
10226;SDS011;15634;48.766;2.272;2023-04-25T09:13:45;19.20;;;10.15;;
10226;SDS011;15634;48.766;2.272;2023-04-25T09:16:12;16.95;;;9.63;;
10226;SDS011;15634;48.766;2.272;2023-04-25T09:18:42;16.23;;;9.10;;
10226;SDS011;15634;48.766;2.272;2023-04-25T09:21:09;16.90;;;9.18;;
10226;SDS011;15634;48.766;2.272;2023-04-25T09:23:43;20.27;;;9.27;;
10226;SDS011;15634;48.766;2.272;2023-04-25T09:26:10;18.35;;;9.60;;
10226;SDS011;15634;48.766;2.272;2023-04-25T09:28:40;16.17;;;8.95;;
10226;SDS011;15634;48.766;2.272;2023-04-25T09:31:09;20.40;;;9.40;;
10226;SDS011;15634;48.766;2.272;2023-04-25T09:33:36;19.63;;;8.57;;
10226;SDS011;15634;48.766;2.272;2023-04-25T09:36:03;20.27;;;8.73;;
10226;SDS011;15634;48.766;2.272;2023-04-25T09:38:32;15.77;;;8.15;;
10226;SDS011;15634;48.766;2.272;2023-04-25T09:41:02;16.73;;;8.50;;
10226;SDS011;15634;48.766;2.272;2023-04-25T09:43:28;20.77;;;8.70;;
10226;SDS011;15634;48.766;2.272;2023-04-25T09:45:55;18.98;;;8.38;;
10226;SDS011;15634;48.766;2.272;2023-04-25T09:48:24;18.48;;;8.73;;
10226;SDS011;15634;48.766;2.272;2023-04-25T09:51:03;17.65;;;8.27;;
10226;SDS011;15634;48.766;2.272;2023-04-25T09:53:31;18.35;;;8.75;;
10226;SDS011;15634;48.766;2.272;2023-04-25T09:55:58;22.15;;;9.00;;
10226;SDS011;15634;48.766;2.272;2023-04-25T09:58:28;19.42;;;9.73;;
10226;SDS011;15634;48.766;2.272;2023-04-25T10:00:55;18.23;;;9.10;;
10226;SDS011;15634;48.766;2.272;2023-04-25T10:03:25;17.23;;;7.88;;
10226;SDS011;15634;48.766;2.272;2023-04-25T10:05:53;16.70;;;8.45;;
10226;SDS011;15634;48.766;2.272;2023-04-25T10:08:20;17.35;;;7.88;;
10226;SDS011;15634;48.766;2.272;2023-04-25T10:10:48;16.27;;;7.60;;
10226;SDS011;15634;48.766;2.272;2023-04-25T10:13:15;14.70;;;7.38;;
10226;SDS011;15634;48.766;2.272;2023-04-25T10:15:43;13.70;;;7.50;;
10226;SDS011;15634;48.766;2.272;2023-04-25T10:18:11;15.00;;;6.97;;
10226;SDS011;15634;48.766;2.272;2023-04-25T10:20:37;13.50;;;7.13;;
10226;SDS011;15634;48.766;2.272;2023-04-25T10:23:06;14.60;;;7.47;;
10226;SDS011;15634;48.766;2.272;2023-04-25T10:25:36;12.82;;;6.85;;
10226;SDS011;15634;48.766;2.272;2023-04-25T10:28:03;13.88;;;7.13;;
10226;SDS011;15634;48.766;2.272;2023-04-25T10:30:30;15.65;;;6.80;;
10226;SDS011;15634;48.766;2.272;2023-04-25T10:32:58;13.48;;;6.90;;
10226;SDS011;15634;48.766;2.272;2023-04-25T10:35:25;16.27;;;7.45;;
10226;SDS011;15634;48.766;2.272;2023-04-25T10:37:59;20.00;;;7.80;;
10226;SDS011;15634;48.766;2.272;2023-04-25T10:40:26;14.05;;;7.20;;
10226;SDS011;15634;48.766;2.272;2023-04-25T10:42:53;12.93;;;6.55;;
10226;SDS011;15634;48.766;2.272;2023-04-25T10:45:21;11.52;;;6.40;;
10226;SDS011;15634;48.766;2.272;2023-04-25T10:47:47;15.65;;;7.10;;
10226;SDS011;15634;48.766;2.272;2023-04-25T10:50:15;14.95;;;7.40;;
10226;SDS011;15634;48.766;2.272;2023-04-25T10:52:42;13.73;;;6.82;;
10226;SDS011;15634;48.766;2.272;2023-04-25T10:55:09;14.52;;;6.25;;
10226;SDS011;15634;48.766;2.272;2023-04-25T10:57:36;14.13;;;6.50;;
10226;SDS011;15634;48.766;2.272;2023-04-25T11:00:05;15.57;;;6.70;;
10226;SDS011;15634;48.766;2.272;2023-04-25T11:02:37;15.90;;;7.03;;
10226;SDS011;15634;48.766;2.272;2023-04-25T11:05:05;16.05;;;6.70;;
10226;SDS011;15634;48.766;2.272;2023-04-25T11:07:38;16.67;;;6.40;;
10226;SDS011;15634;48.766;2.272;2023-04-25T11:10:09;14.85;;;7.15;;
10226;SDS011;15634;48.766;2.272;2023-04-25T11:12:36;12.70;;;7.05;;
10226;SDS011;15634;48.766;2.272;2023-04-25T11:15:03;14.05;;;6.82;;
10226;SDS011;15634;48.766;2.272;2023-04-25T11:17:31;12.48;;;5.65;;
10226;SDS011;15634;48.766;2.272;2023-04-25T11:19:58;12.05;;;5.88;;
10226;SDS011;15634;48.766;2.272;2023-04-25T11:22:25;16.30;;;6.50;;
10226;SDS011;15634;48.766;2.272;2023-04-25T11:24:54;12.85;;;5.72;;
10226;SDS011;15634;48.766;2.272;2023-04-25T11:27:21;18.05;;;5.72;;
10226;SDS011;15634;48.766;2.272;2023-04-25T11:29:49;11.18;;;5.80;;
10226;SDS011;15634;48.766;2.272;2023-04-25T11:32:17;11.90;;;5.20;;
10226;SDS011;15634;48.766;2.272;2023-04-25T11:34:44;10.95;;;5.45;;
10226;SDS011;15634;48.766;2.272;2023-04-25T11:37:11;14.15;;;6.20;;
10226;SDS011;15634;48.766;2.272;2023-04-25T11:39:39;13.25;;;5.30;;
10226;SDS011;15634;48.766;2.272;2023-04-25T11:42:10;8.07;;;5.05;;
10226;SDS011;15634;48.766;2.272;2023-04-25T11:44:37;10.98;;;5.57;;
10226;SDS011;15634;48.766;2.272;2023-04-25T11:47:04;12.90;;;5.20;;
10226;SDS011;15634;48.766;2.272;2023-04-25T11:49:31;11.93;;;5.03;;
10226;SDS011;15634;48.766;2.272;2023-04-25T11:51:58;7.38;;;4.68;;
10226;SDS011;15634;48.766;2.272;2023-04-25T11:54:25;10.00;;;4.50;;
10226;SDS011;15634;48.766;2.272;2023-04-25T11:56:51;21.42;;;6.57;;
10226;SDS011;15634;48.766;2.272;2023-04-25T11:59:19;11.65;;;4.78;;
10226;SDS011;15634;48.766;2.272;2023-04-25T12:01:50;12.77;;;4.90;;
10226;SDS011;15634;48.766;2.272;2023-04-25T12:04:17;10.63;;;4.30;;
10226;SDS011;15634;48.766;2.272;2023-04-25T12:06:45;11.05;;;4.68;;
10226;SDS011;15634;48.766;2.272;2023-04-25T12:09:13;13.05;;;4.32;;
10226;SDS011;15634;48.766;2.272;2023-04-25T12:11:41;10.68;;;4.80;;
10226;SDS011;15634;48.766;2.272;2023-04-25T12:14:08;12.82;;;4.97;;
10226;SDS011;15634;48.766;2.272;2023-04-25T12:16:43;9.32;;;4.78;;
10226;SDS011;15634;48.766;2.272;2023-04-25T12:19:13;12.02;;;4.72;;
10226;SDS011;15634;48.766;2.272;2023-04-25T12:21:40;10.07;;;4.63;;
10226;SDS011;15634;48.766;2.272;2023-04-25T12:24:10;13.98;;;5.60;;
10226;SDS011;15634;48.766;2.272;2023-04-25T12:26:48;12.43;;;5.38;;
10226;SDS011;15634;48.766;2.272;2023-04-25T12:29:16;10.52;;;4.82;;
10226;SDS011;15634;48.766;2.272;2023-04-25T12:31:44;13.75;;;4.88;;
10226;SDS011;15634;48.766;2.272;2023-04-25T12:34:11;9.77;;;5.03;;
10226;SDS011;15634;48.766;2.272;2023-04-25T12:36:38;7.35;;;4.45;;
10226;SDS011;15634;48.766;2.272;2023-04-25T12:39:05;10.48;;;5.03;;
10226;SDS011;15634;48.766;2.272;2023-04-25T12:41:32;10.27;;;4.93;;
10226;SDS011;15634;48.766;2.272;2023-04-25T12:43:59;10.65;;;4.50;;
10226;SDS011;15634;48.766;2.272;2023-04-25T12:46:25;9.45;;;4.75;;
10226;SDS011;15634;48.766;2.272;2023-04-25T12:48:54;12.40;;;5.38;;
10226;SDS011;15634;48.766;2.272;2023-04-25T12:51:21;14.63;;;5.07;;
10226;SDS011;15634;48.766;2.272;2023-04-25T12:53:50;14.20;;;5.30;;
10226;SDS011;15634;48.766;2.272;2023-04-25T12:56:17;10.98;;;5.25;;
10226;SDS011;15634;48.766;2.272;2023-04-25T12:58:43;10.65;;;5.60;;
10226;SDS011;15634;48.766;2.272;2023-04-25T13:01:10;10.05;;;4.93;;
10226;SDS011;15634;48.766;2.272;2023-04-25T13:03:37;10.65;;;4.55;;
10226;SDS011;15634;48.766;2.272;2023-04-25T13:06:06;13.95;;;5.00;;
10226;SDS011;15634;48.766;2.272;2023-04-25T13:08:32;15.80;;;5.22;;
10226;SDS011;15634;48.766;2.272;2023-04-25T13:11:00;15.38;;;5.70;;
10226;SDS011;15634;48.766;2.272;2023-04-25T13:13:26;13.55;;;5.38;;
10226;SDS011;15634;48.766;2.272;2023-04-25T13:15:53;13.07;;;6.47;;
10226;SDS011;15634;48.766;2.272;2023-04-25T13:18:20;12.65;;;4.18;;
10226;SDS011;15634;48.766;2.272;2023-04-25T13:20:51;9.50;;;4.40;;
10226;SDS011;15634;48.766;2.272;2023-04-25T13:23:19;9.90;;;4.65;;
10226;SDS011;15634;48.766;2.272;2023-04-25T13:25:46;13.50;;;4.65;;
10226;SDS011;15634;48.766;2.272;2023-04-25T13:28:13;9.82;;;4.90;;
10226;SDS011;15634;48.766;2.272;2023-04-25T13:30:39;12.10;;;4.82;;
10226;SDS011;15634;48.766;2.272;2023-04-25T13:33:06;13.73;;;5.38;;
10226;SDS011;15634;48.766;2.272;2023-04-25T13:35:33;15.40;;;5.50;;
10226;SDS011;15634;48.766;2.272;2023-04-25T13:38:00;11.30;;;5.07;;
10226;SDS011;15634;48.766;2.272;2023-04-25T13:40:28;13.00;;;5.05;;
10226;SDS011;15634;48.766;2.272;2023-04-25T13:42:55;13.43;;;5.15;;
10226;SDS011;15634;48.766;2.272;2023-04-25T13:45:22;7.97;;;4.70;;
10226;SDS011;15634;48.766;2.272;2023-04-25T13:47:49;11.70;;;4.88;;
10226;SDS011;15634;48.766;2.272;2023-04-25T13:50:16;14.05;;;5.03;;
10226;SDS011;15634;48.766;2.272;2023-04-25T13:52:43;11.30;;;5.53;;
10226;SDS011;15634;48.766;2.272;2023-04-25T13:55:10;11.43;;;5.35;;
10226;SDS011;15634;48.766;2.272;2023-04-25T13:57:38;11.10;;;5.32;;
10226;SDS011;15634;48.766;2.272;2023-04-25T14:00:05;13.45;;;5.07;;
10226;SDS011;15634;48.766;2.272;2023-04-25T14:02:36;12.98;;;5.55;;
10226;SDS011;15634;48.766;2.272;2023-04-25T14:05:03;10.80;;;5.47;;
10226;SDS011;15634;48.766;2.272;2023-04-25T14:07:30;11.52;;;5.13;;
10226;SDS011;15634;48.766;2.272;2023-04-25T14:09:57;12.65;;;5.20;;
10226;SDS011;15634;48.766;2.272;2023-04-25T14:12:23;13.70;;;5.00;;
10226;SDS011;15634;48.766;2.272;2023-04-25T14:14:52;11.73;;;4.95;;
10226;SDS011;15634;48.766;2.272;2023-04-25T14:17:19;9.70;;;5.30;;
10226;SDS011;15634;48.766;2.272;2023-04-25T14:19:45;14.23;;;5.40;;
10226;SDS011;15634;48.766;2.272;2023-04-25T14:22:13;12.65;;;5.07;;
10226;SDS011;15634;48.766;2.272;2023-04-25T14:24:40;9.85;;;4.85;;
10226;SDS011;15634;48.766;2.272;2023-04-25T14:27:07;14.48;;;5.35;;
10226;SDS011;15634;48.766;2.272;2023-04-25T14:29:33;8.98;;;4.63;;
10226;SDS011;15634;48.766;2.272;2023-04-25T14:32:01;11.15;;;4.93;;
10226;SDS011;15634;48.766;2.272;2023-04-25T14:34:28;15.05;;;5.05;;
10226;SDS011;15634;48.766;2.272;2023-04-25T14:36:55;11.68;;;4.78;;